createdAt,value
2023-01-13T00:04:47.879Z,1.00
2023-01-13T00:09:53.473Z,1.23
2023-01-13T00:14:58.974Z,1.37
2023-01-13T00:20:04.794Z,1.40
2023-01-13T00:25:10.978Z,1.00
2023-01-13T00:30:16.856Z,1.47
2023-01-13T00:35:22.809Z,1.20
2023-01-13T00:40:28.799Z,1.30
2023-01-13T00:45:34.358Z,1.30
2023-01-13T00:50:39.938Z,1.53
2023-01-13T00:55:45.496Z,1.53
2023-01-13T01:00:51.059Z,1.70
2023-01-13T01:05:57.343Z,1.87
2023-01-13T01:11:11.472Z,1.07
2023-01-13T01:16:18.922Z,0.70
2023-01-13T01:21:26.627Z,0.90
2023-01-13T01:26:33.301Z,0.93
2023-01-13T01:31:38.948Z,0.80
2023-01-13T01:36:44.544Z,1.23
2023-01-13T01:42:07.800Z,1.20
2023-01-13T01:47:16.282Z,0.87
2023-01-13T01:52:27.492Z,0.87
2023-01-13T01:57:44.793Z,1.03
2023-01-13T02:02:52.778Z,1.10
2023-01-13T02:08:00.046Z,1.20
2023-01-13T02:13:08.498Z,1.10
2023-01-13T02:18:19.732Z,1.37
2023-01-13T02:23:58.282Z,1.83
2023-01-13T02:29:30.772Z,1.30
2023-01-13T02:34:42.526Z,1.00
2023-01-13T02:40:02.997Z,1.20
2023-01-13T02:45:14.699Z,1.27
2023-01-13T02:50:23.475Z,1.23
2023-01-13T02:55:31.928Z,0.97
2023-01-13T03:00:38.915Z,0.90
2023-01-13T03:05:47.540Z,0.97
2023-01-13T03:11:11.074Z,0.90
2023-01-13T03:16:51.483Z,1.00
2023-01-13T03:22:11.721Z,0.87
2023-01-13T03:27:29.183Z,0.90
2023-01-13T03:32:37.619Z,0.90
2023-01-13T03:37:46.054Z,1.10
2023-01-13T03:43:15.065Z,1.20
2023-01-13T03:48:23.443Z,1.50
2023-01-13T03:53:37.544Z,0.80
2023-01-13T03:58:46.039Z,1.10
2023-01-13T04:04:00.317Z,1.50
2023-01-13T04:09:11.652Z,1.30
2023-01-13T04:14:19.613Z,1.27
2023-01-13T04:19:25.310Z,1.07
2023-01-13T04:24:30.702Z,0.80
2023-01-13T04:29:36.176Z,0.70
2023-01-13T04:34:42.025Z,0.60
2023-01-13T04:39:47.405Z,0.60
2023-01-13T04:44:52.926Z,0.60
2023-01-13T04:49:58.400Z,0.70
2023-01-13T04:55:03.924Z,0.60
2023-01-13T05:00:12.422Z,1.00
2023-01-13T05:05:18.108Z,0.70
2023-01-13T05:10:24.168Z,0.80
2023-01-13T05:15:47.789Z,0.70
2023-01-13T05:20:53.285Z,0.73
2023-01-13T05:25:58.811Z,0.93
2023-01-13T05:31:05.481Z,1.07
2023-01-13T05:36:11.158Z,0.90
2023-01-13T05:41:34.615Z,0.90
2023-01-13T05:46:42.150Z,0.50
2023-01-13T05:51:48.818Z,0.50
2023-01-13T05:56:54.270Z,0.50
2023-01-13T06:01:59.727Z,0.30
2023-01-13T06:07:05.183Z,0.27
2023-01-13T06:12:13.441Z,0.40
2023-01-13T06:17:18.912Z,0.33
2023-01-13T06:22:27.393Z,0.30
2023-01-13T06:27:32.957Z,0.40
2023-01-13T06:32:41.459Z,0.30
2023-01-13T06:37:48.506Z,0.37
2023-01-13T06:43:16.383Z,0.50
2023-01-13T06:48:25.163Z,0.47
2023-01-13T06:53:30.616Z,0.50
2023-01-13T06:58:35.989Z,0.30
2023-01-13T07:03:42.185Z,0.30
2023-01-13T07:08:47.828Z,0.30
2023-01-13T07:14:11.220Z,0.40
2023-01-13T07:19:18.266Z,0.60
2023-01-13T07:24:23.718Z,0.60
2023-01-13T07:29:29.114Z,0.50
2023-01-13T07:34:34.654Z,0.50
2023-01-13T07:39:40.053Z,0.60
2023-01-13T07:44:45.486Z,0.50
2023-01-13T07:49:51.670Z,0.50
2023-01-13T07:54:57.138Z,0.60
2023-01-13T08:00:02.714Z,0.50
2023-01-13T08:05:09.982Z,0.40
2023-01-13T08:10:15.430Z,0.40
2023-01-13T08:15:21.032Z,0.50
2023-01-13T08:20:26.921Z,0.73
2023-01-13T08:25:33.091Z,0.60
2023-01-13T08:30:38.685Z,0.70
2023-01-13T08:35:44.295Z,1.33
2023-01-13T08:40:49.932Z,0.53
2023-01-13T08:46:05.094Z,0.57
2023-01-13T08:51:12.498Z,0.90
2023-01-13T08:56:17.869Z,0.80
2023-01-13T09:01:24.891Z,1.20
2023-01-13T09:06:30.506Z,0.80
2023-01-13T09:11:56.832Z,1.17
2023-01-13T09:17:02.454Z,1.00
2023-01-13T09:22:07.976Z,0.90
2023-01-13T09:27:15.528Z,0.90
2023-01-13T09:32:21.161Z,1.00
2023-01-13T09:37:27.930Z,1.13
2023-01-13T09:43:03.354Z,0.97
2023-01-13T09:48:17.858Z,1.10
2023-01-13T09:53:26.353Z,1.10
2023-01-13T09:58:31.870Z,1.40
2023-01-13T10:03:37.642Z,1.20
2023-01-13T10:08:45.845Z,1.30
2023-01-13T10:13:54.319Z,1.10
2023-01-13T10:19:08.421Z,1.23
2023-01-13T10:24:16.946Z,1.30
2023-01-13T10:29:25.975Z,1.20
2023-01-13T10:34:31.560Z,0.97
2023-01-13T10:39:49.416Z,0.90
2023-01-13T10:45:00.159Z,1.20
2023-01-13T10:50:11.411Z,1.10
2023-01-13T10:55:33.399Z,1.00
2023-01-13T11:00:38.972Z,0.93
2023-01-13T11:05:50.378Z,1.33
2023-01-13T11:10:59.503Z,0.90
2023-01-13T11:16:19.227Z,0.73
2023-01-13T11:21:31.601Z,0.90
2023-01-13T11:26:54.926Z,0.67
2023-01-13T11:32:07.403Z,0.60
2023-01-13T11:37:27.977Z,0.60
2023-01-13T11:42:39.279Z,0.90
2023-01-13T11:47:47.722Z,1.00
2023-01-13T11:53:12.867Z,0.90
2023-01-13T11:58:24.180Z,0.57
2023-01-13T12:03:38.524Z,1.33
2023-01-13T12:09:02.198Z,0.90
2023-01-13T12:14:22.567Z,0.67
2023-01-13T12:19:30.263Z,0.70
2023-01-13T12:24:53.680Z,0.77
2023-01-13T12:30:01.102Z,1.00
2023-01-13T12:35:40.205Z,0.97
2023-01-13T12:41:05.370Z,1.60
2023-01-13T12:46:26.066Z,1.37
2023-01-13T12:51:34.364Z,1.30
2023-01-13T12:56:44.885Z,1.20
2023-01-13T13:01:52.737Z,1.10
2023-01-13T13:07:07.069Z,1.20
2023-01-13T13:12:52.071Z,1.20
2023-01-13T13:18:09.423Z,1.67
2023-01-13T13:23:39.218Z,1.00
2023-01-13T13:29:13.557Z,1.10
2023-01-13T13:34:22.074Z,1.00
2023-01-13T13:39:52.106Z,1.43
2023-01-13T13:45:18.349Z,0.93
2023-01-13T13:50:24.212Z,1.10
2023-01-13T13:55:31.033Z,0.90
2023-01-13T14:00:38.480Z,1.50
2023-01-13T14:05:47.025Z,1.20
2023-01-13T14:10:52.558Z,0.90
2023-01-13T14:16:06.498Z,1.00
2023-01-13T14:21:27.031Z,1.10
2023-01-13T14:26:34.215Z,0.87
2023-01-13T14:31:40.495Z,0.90
2023-01-13T14:36:47.755Z,0.67
2023-01-13T14:41:54.160Z,1.10
2023-01-13T14:47:02.807Z,0.90
2023-01-13T14:52:23.162Z,0.80
2023-01-13T14:57:32.184Z,0.70
2023-01-13T15:02:40.363Z,1.33
2023-01-13T15:08:14.924Z,0.83
2023-01-13T15:13:41.099Z,1.20
2023-01-13T15:18:48.746Z,1.20
2023-01-13T15:23:54.340Z,1.20
2023-01-13T15:29:00.829Z,1.40
2023-01-13T15:34:06.289Z,1.30
2023-01-13T15:39:13.462Z,1.40
2023-01-13T15:44:36.941Z,1.23
2023-01-13T15:49:45.172Z,1.30
2023-01-13T15:54:51.994Z,1.40
2023-01-13T16:00:00.452Z,1.57
2023-01-13T16:05:08.130Z,1.37
2023-01-13T16:10:22.345Z,1.50
2023-01-13T16:15:27.728Z,1.83
2023-01-13T16:20:33.117Z,1.37
2023-01-13T16:25:39.140Z,1.40
2023-01-13T16:30:44.529Z,1.73
2023-01-13T16:36:10.798Z,1.43
2023-01-13T16:40:58.751Z,1.27
2023-01-13T16:46:05.678Z,1.30
2023-01-13T16:51:11.310Z,1.00
2023-01-13T16:56:31.597Z,1.27
2023-01-13T17:01:40.024Z,1.47
2023-01-13T17:07:08.519Z,1.50
2023-01-13T17:12:14.113Z,1.97
2023-01-13T17:17:43.539Z,1.40
2023-01-13T17:22:57.723Z,1.17
2023-01-13T17:27:56.963Z,1.47
2023-01-13T17:33:02.497Z,1.40
2023-01-13T17:38:07.952Z,1.57
2023-01-13T17:43:13.335Z,1.10
2023-01-13T17:48:19.605Z,1.30
2023-01-13T17:53:26.653Z,1.50
2023-01-13T17:58:32.046Z,1.03
2023-01-13T18:03:38.689Z,1.00
2023-01-13T18:08:44.231Z,1.47
2023-01-13T18:13:57.873Z,1.23
2023-01-13T18:19:21.600Z,2.00
2023-01-13T18:24:45.394Z,1.10
2023-01-13T18:29:52.868Z,1.60
2023-01-13T18:35:05.767Z,1.30
2023-01-13T18:40:10.010Z,1.50
2023-01-13T18:45:15.603Z,1.00
2023-01-13T18:50:22.528Z,1.13
2023-01-13T18:55:28.893Z,1.13
2023-01-13T19:00:35.969Z,1.03
2023-01-13T19:05:43.162Z,0.90
2023-01-13T19:10:49.974Z,1.17
2023-01-13T19:15:55.445Z,1.17
2023-01-13T19:21:05.417Z,1.37
2023-01-13T19:26:12.807Z,1.07
2023-01-13T19:31:19.860Z,0.87
2023-01-13T19:36:27.039Z,1.10
2023-01-13T19:41:50.397Z,1.00
2023-01-13T19:46:55.855Z,1.10
2023-01-13T19:52:01.308Z,1.10
2023-01-13T19:57:07.627Z,1.30
2023-01-13T20:02:20.213Z,1.13
2023-01-13T20:07:31.374Z,1.07
2023-01-13T20:12:36.893Z,1.60
2023-01-13T20:17:42.657Z,1.30
2023-01-13T20:22:49.829Z,1.30
2023-01-13T20:27:56.077Z,1.27
2023-01-13T20:33:01.533Z,1.20
2023-01-13T20:38:07.250Z,1.67
2023-01-13T20:43:12.634Z,1.33
2023-01-13T20:48:18.016Z,1.17
2023-01-13T20:53:23.641Z,1.13
2023-01-13T20:58:29.026Z,1.10
2023-01-13T21:03:34.657Z,1.13
2023-01-13T21:08:40.348Z,1.00
2023-01-13T21:14:04.651Z,1.03
2023-01-13T21:19:10.919Z,1.20
2023-01-13T21:24:16.537Z,1.47
2023-01-13T21:29:23.068Z,1.10
2023-01-13T21:34:28.697Z,1.40
2023-01-13T21:39:34.239Z,0.97
2023-01-13T21:44:57.610Z,1.03
2023-01-13T21:50:04.029Z,0.80
2023-01-13T21:55:23.878Z,1.70
2023-01-13T22:00:33.207Z,1.10
2023-01-13T22:05:39.481Z,1.30
2023-01-13T22:11:00.341Z,1.20
2023-01-13T22:16:06.559Z,1.00
2023-01-13T22:21:12.349Z,1.53
2023-01-13T22:26:19.026Z,1.27
2023-01-13T22:31:25.515Z,1.27
2023-01-13T22:36:31.189Z,1.20
2023-01-13T22:41:36.640Z,1.40
2023-01-13T22:46:42.171Z,1.73
2023-01-13T22:51:48.654Z,1.50
2023-01-13T22:56:54.036Z,0.93
2023-01-13T23:01:59.559Z,1.03
2023-01-13T23:07:05.005Z,1.50
2023-01-13T23:12:10.540Z,0.80
2023-01-13T23:17:16.061Z,1.07
2023-01-13T23:22:21.510Z,1.10
2023-01-13T23:27:27.065Z,1.57
2023-01-13T23:32:32.589Z,2.10
2023-01-13T23:37:38.045Z,1.40
2023-01-13T23:42:43.502Z,1.20
2023-01-13T23:47:49.032Z,1.73
2023-01-13T23:52:54.644Z,1.23
2023-01-13T23:58:00.171Z,1.30
